Time;durP1;ratioP1;P1;durP2;ratioP2;P2;SDS_P1;SDS_P2;PMS_P1;PMS_P2;Temp;Humidity;BMP_temperature;BMP_pressure;BME280_temperature;BME280_humidity;BME280_pressure;Samples;Min_cycle;Max_cycle;Signal;HPM_P1;HPM_P2
2024/01/07 00:02:23;;;;;;;21.65;9.02;;;;;;;4.12;100.00;101262.41;6120389;23;20002;-94
2024/01/07 00:04:48;;;;;;;14.32;7.75;;;;;;;4.08;100.00;101265.88;6120815;23;20010;-95
2024/01/07 00:07:13;;;;;;;16.20;7.63;;;;;;;3.97;100.00;101263.47;6121156;23;20013;-94
2024/01/07 00:09:39;;;;;;;12.75;8.27;;;;;;;4.08;100.00;101270.97;6119938;23;20048;-94
2024/01/07 00:12:04;;;;;;;12.68;6.85;;;;;;;4.05;100.00;101278.72;6120814;23;20459;-93
2024/01/07 00:14:30;;;;;;;17.52;6.82;;;;;;;3.97;100.00;101277.97;6120440;23;20040;-93
2024/01/07 00:16:55;;;;;;;11.65;7.28;;;;;;;3.94;100.00;101281.41;6121839;23;20002;-94
2024/01/07 00:19:20;;;;;;;17.70;7.15;;;;;;;3.90;100.00;101287.44;6121299;23;20172;-93
2024/01/07 00:21:46;;;;;;;10.25;6.32;;;;;;;3.83;100.00;101291.81;6120657;23;20089;-93
2024/01/07 00:24:11;;;;;;;13.45;7.10;;;;;;;3.84;100.00;101297.75;6120120;23;20478;-93
2024/01/07 00:26:36;;;;;;;18.42;7.55;;;;;;;3.71;100.00;101299.66;6121972;23;20009;-93
2024/01/07 00:29:02;;;;;;;14.93;6.85;;;;;;;3.74;100.00;101307.28;6120599;23;20109;-93
2024/01/07 00:31:27;;;;;;;10.70;6.60;;;;;;;3.77;100.00;101307.22;6120577;23;20093;-93
2024/01/07 00:33:53;;;;;;;16.20;6.63;;;;;;;3.69;100.00;101303.94;6120118;23;20021;-94
2024/01/07 00:36:18;;;;;;;20.90;8.68;;;;;;;3.76;100.00;101315.75;6122064;23;20010;-94
2024/01/07 00:38:43;;;;;;;15.95;7.45;;;;;;;3.73;100.00;101310.72;6120382;23;20017;-94
2024/01/07 00:41:09;;;;;;;13.20;6.63;;;;;;;3.67;100.00;101313.34;6121986;23;20113;-92
2024/01/07 00:43:34;;;;;;;17.30;9.20;;;;;;;3.59;100.00;101313.47;6120406;23;20006;-93
2024/01/07 00:45:59;;;;;;;17.05;7.82;;;;;;;3.61;100.00;101321.09;6120612;23;20436;-92
2024/01/07 00:48:25;;;;;;;13.98;8.35;;;;;;;3.49;100.00;101321.25;6121332;23;20424;-93
2024/01/07 00:50:50;;;;;;;19.20;8.82;;;;;;;3.42;100.00;101323.91;6120967;23;20084;-93
2024/01/07 00:53:15;;;;;;;12.10;7.90;;;;;;;3.41;100.00;101324.78;6121088;23;20006;-94
2024/01/07 00:55:41;;;;;;;17.15;8.40;;;;;;;3.29;100.00;101318.97;6120594;23;20092;-93
2024/01/07 00:58:06;;;;;;;15.43;9.57;;;;;;;3.44;100.00;101321.34;6120986;23;20383;-93
2024/01/07 01:00:32;;;;;;;14.55;9.07;;;;;;;3.33;100.00;101320.63;6120752;23;20006;-93
2024/01/07 01:02:58;;;;;;;20.45;11.35;;;;;;;3.25;100.00;101317.34;6121459;23;20080;-94
2024/01/07 01:05:23;;;;;;;15.05;9.18;;;;;;;3.23;100.00;101317.34;6121706;23;20243;-93
2024/01/07 01:07:48;;;;;;;15.68;10.15;;;;;;;3.27;100.00;101323.25;6121317;23;20248;-93
2024/01/07 01:10:17;;;;;;;15.27;8.82;;;;;;;3.34;100.00;101319.75;6121158;23;20341;-93
2024/01/07 01:12:43;;;;;;;19.65;11.05;;;;;;;3.40;100.00;101327.34;6120866;23;20250;-93
2024/01/07 01:15:09;;;;;;;12.38;9.43;;;;;;;3.31;100.00;101333.41;6120362;23;20093;-93
2024/01/07 01:17:34;;;;;;;20.33;10.20;;;;;;;3.36;100.00;101329.06;6121573;23;20326;-93
2024/01/07 01:19:59;;;;;;;19.05;10.55;;;;;;;3.39;100.00;101326.50;6122580;23;20002;-93
2024/01/07 01:22:25;;;;;;;19.35;10.75;;;;;;;3.45;100.00;101325.56;6122298;23;20005;-92
2024/01/07 01:24:51;;;;;;;24.38;11.50;;;;;;;3.54;100.00;101329.72;6121320;23;20040;-93
2024/01/07 01:27:16;;;;;;;27.77;13.02;;;;;;;3.42;100.00;101316.25;6120798;23;20013;-93
2024/01/07 01:29:41;;;;;;;17.45;11.93;;;;;;;3.43;100.00;101322.19;6122331;23;19998;-93
2024/01/07 01:32:07;;;;;;;20.05;12.18;;;;;;;3.47;100.00;101328.09;6120521;23;20010;-94
2024/01/07 01:34:32;;;;;;;23.10;13.25;;;;;;;3.51;100.00;101329.72;6120900;23;20441;-92
2024/01/07 01:36:58;;;;;;;21.73;13.43;;;;;;;3.33;100.00;101323.19;6122494;23;20006;-93
2024/01/07 01:39:23;;;;;;;22.50;12.75;;;;;;;3.47;100.00;101323.84;6121116;23;20162;-92
2024/01/07 01:41:48;;;;;;;17.30;12.45;;;;;;;3.40;100.00;101328.19;6121089;23;20433;-93
2024/01/07 01:44:14;;;;;;;23.83;12.73;;;;;;;3.45;100.00;101329.84;6120470;23;20089;-92
2024/01/07 01:46:39;;;;;;;19.85;12.55;;;;;;;3.39;100.00;101330.75;6120569;23;20041;-93
2024/01/07 01:49:06;;;;;;;23.75;13.40;;;;;;;3.33;100.00;101329.13;6120969;23;20006;-92
2024/01/07 01:51:31;;;;;;;21.90;12.25;;;;;;;3.35;100.00;101337.59;6122258;23;20237;-94
2024/01/07 01:53:58;;;;;;;21.63;12.23;;;;;;;3.37;100.00;101345.25;6119942;23;20414;-93
2024/01/07 01:56:27;;;;;;;21.50;12.45;;;;;;;3.46;100.00;101341.72;6120750;23;20021;-92
2024/01/07 01:58:52;;;;;;;22.25;13.20;;;;;;;3.33;100.00;101341.88;6120163;23;20349;-92
2024/01/07 02:01:18;;;;;;;27.90;14.15;;;;;;;3.36;100.00;101343.53;6120573;23;20005;-92
2024/01/07 02:03:43;;;;;;;19.95;13.45;;;;;;;3.27;100.00;101352.19;6120514;23;20201;-93
2024/01/07 02:06:11;;;;;;;31.65;16.10;;;;;;;3.28;100.00;101347.91;6120761;23;20417;-92
2024/01/07 02:08:38;;;;;;;22.40;14.15;;;;;;;3.24;100.00;101352.19;6120658;23;20088;-92
2024/01/07 02:11:21;;;;;;;27.80;15.35;;;;;;;3.28;100.00;101351.31;6121585;23;20360;-91
2024/01/07 02:13:47;;;;;;;25.52;14.48;;;;;;;3.30;100.00;101358.94;6120095;23;20016;-93
2024/01/07 02:16:12;;;;;;;23.88;14.02;;;;;;;3.36;100.00;101367.34;6119834;23;20006;-92
2024/01/07 02:18:41;;;;;;;25.38;13.25;;;;;;;3.37;100.00;101366.50;6120336;23;20006;-92
2024/01/07 02:21:11;;;;;;;25.30;14.20;;;;;;;3.31;100.00;101369.13;6121941;23;20376;-91
2024/01/07 02:23:37;;;;;;;27.02;14.15;;;;;;;3.32;100.00;101373.38;6120728;23;20048;-92
2024/01/07 02:26:02;;;;;;;34.80;14.75;;;;;;;3.41;100.00;101372.41;6120155;23;20006;-92
2024/01/07 02:28:29;;;;;;;25.63;13.35;;;;;;;3.37;100.00;101369.06;6122706;23;20543;-92
2024/01/07 02:30:54;;;;;;;21.90;13.23;;;;;;;3.43;100.00;101363.84;6120407;23;20016;-92
2024/01/07 02:33:20;;;;;;;24.20;13.80;;;;;;;3.37;100.00;101368.22;6120030;23;20030;-91
2024/01/07 02:35:45;;;;;;;25.40;13.18;;;;;;;3.39;100.00;101377.53;6121566;23;20020;-91
2024/01/07 02:38:10;;;;;;;22.05;12.35;;;;;;;3.42;100.00;101372.38;6122445;23;20366;-91
2024/01/07 02:40:36;;;;;;;25.30;12.85;;;;;;;3.40;100.00;101373.28;6121339;23;20006;-91
2024/01/07 02:43:01;;;;;;;22.20;13.45;;;;;;;3.46;100.00;101380.00;6120501;23;20002;-92
2024/01/07 02:45:26;;;;;;;23.88;13.15;;;;;;;3.41;100.00;101380.91;6121294;23;20029;-93
2024/01/07 02:47:52;;;;;;;21.77;12.75;;;;;;;3.34;100.00;101391.19;6118375;23;20006;-92
2024/01/07 02:50:17;;;;;;;32.85;13.45;;;;;;;3.35;100.00;101393.75;6120463;23;20033;-93
2024/01/07 02:52:43;;;;;;;20.98;13.25;;;;;;;3.33;100.00;101387.81;6119235;23;20010;-91
2024/01/07 02:55:08;;;;;;;28.02;16.65;;;;;;;3.55;100.00;101390.94;6121265;23;20005;-92
2024/01/07 02:57:34;;;;;;;21.83;11.90;;;;;;;3.59;100.00;101394.31;6121200;23;20010;-91
2024/01/07 02:59:59;;;;;;;21.70;12.52;;;;;;;3.52;100.00;101398.63;6119875;23;20006;-92
2024/01/07 03:02:25;;;;;;;23.05;12.30;;;;;;;3.43;100.00;101399.59;6119874;23;20006;-92
2024/01/07 03:04:50;;;;;;;19.83;12.77;;;;;;;3.46;100.00;101398.69;6119391;23;20310;-92
2024/01/07 03:07:15;;;;;;;20.75;12.10;;;;;;;3.55;100.00;101411.34;6119180;23;20002;-92
2024/01/07 03:09:41;;;;;;;20.98;12.77;;;;;;;3.60;100.00;101406.19;6119250;23;20002;-91
2024/01/07 03:12:06;;;;;;;26.73;14.38;;;;;;;3.70;100.00;101405.19;6120749;23;20372;-92
2024/01/07 03:14:31;;;;;;;18.73;12.50;;;;;;;3.68;100.00;101413.75;6119081;23;20006;-90
2024/01/07 03:16:57;;;;;;;22.13;12.73;;;;;;;3.68;100.00;101409.47;6119768;23;20033;-92
2024/01/07 03:19:22;;;;;;;22.25;12.95;;;;;;;3.68;100.00;101422.25;6120773;23;20006;-92
2024/01/07 03:21:48;;;;;;;21.48;12.25;;;;;;;3.82;100.00;101417.78;6119066;23;20448;-93
2024/01/07 03:24:14;;;;;;;19.08;12.95;;;;;;;3.68;100.00;101416.28;6119865;23;20002;-92
2024/01/07 03:26:39;;;;;;;20.60;12.48;;;;;;;3.59;100.00;101412.16;6121903;23;20014;-93
2024/01/07 03:29:04;;;;;;;22.67;11.82;;;;;;;3.63;100.00;101419.78;6121978;23;20081;-93
2024/01/07 03:31:30;;;;;;;23.95;13.70;;;;;;;3.65;100.00;101417.19;6121929;23;20002;-92
2024/01/07 03:33:55;;;;;;;21.38;13.32;;;;;;;3.64;100.00;101428.28;6121783;23;20336;-93
2024/01/07 03:36:21;;;;;;;23.65;13.75;;;;;;;3.71;100.00;101429.88;6121273;23;20006;-93
2024/01/07 03:38:46;;;;;;;21.55;12.43;;;;;;;3.63;100.00;101424.88;6120605;23;20611;-92
2024/01/07 03:41:19;;;;;;;21.05;13.18;;;;;;;3.67;100.00;101428.22;6121887;23;20013;-93
2024/01/07 03:43:48;;;;;;;21.90;13.77;;;;;;;3.77;100.00;101429.78;6120396;23;20017;-93
2024/01/07 03:46:14;;;;;;;26.80;14.57;;;;;;;3.79;100.00;101430.63;6122201;23;20002;-93
2024/01/07 03:48:41;;;;;;;22.42;13.35;;;;;;;3.70;100.00;101428.19;6121822;23;20012;-92
2024/01/07 03:51:06;;;;;;;25.77;15.07;;;;;;;3.84;100.00;101421.19;6119729;23;20002;-92
2024/01/07 03:53:32;;;;;;;26.45;16.00;;;;;;;3.76;100.00;101425.56;6120138;23;20009;-91
2024/01/07 03:55:58;;;;;;;25.23;14.75;;;;;;;3.79;100.00;101422.13;6120148;23;20014;-92
2024/01/07 03:58:23;;;;;;;20.23;13.23;;;;;;;3.74;100.00;101423.88;6120196;23;20097;-93
2024/01/07 04:00:48;;;;;;;23.52;14.20;;;;;;;3.77;100.00;101429.78;6120568;23;20009;-93
2024/01/07 04:03:14;;;;;;;25.65;13.50;;;;;;;3.82;100.00;101433.13;6120175;23;20010;-92
2024/01/07 04:05:39;;;;;;;24.00;13.52;;;;;;;3.89;100.00;101428.78;6119406;23;20502;-91
2024/01/07 04:08:05;;;;;;;19.88;13.07;;;;;;;3.83;100.00;101427.16;6120286;23;20375;-92
2024/01/07 04:10:30;;;;;;;18.98;13.25;;;;;;;3.76;100.00;101434.94;6120036;23;19998;-92
2024/01/07 04:12:56;;;;;;;25.63;13.80;;;;;;;3.79;100.00;101438.28;6120036;23;20044;-92
2024/01/07 04:15:21;;;;;;;20.33;13.40;;;;;;;3.70;100.00;101433.28;6119979;23;20017;-92
2024/01/07 04:17:48;;;;;;;21.02;13.20;;;;;;;3.69;100.00;101434.16;6121734;23;20048;-92
2024/01/07 04:20:14;;;;;;;24.33;13.00;;;;;;;3.76;100.00;101442.59;6121019;23;20010;-93
2024/01/07 04:22:39;;;;;;;19.42;13.30;;;;;;;3.75;100.00;101454.50;6121642;23;20029;-92
2024/01/07 04:25:08;;;;;;;22.35;13.57;;;;;;;3.79;100.00;101440.81;6119915;23;20006;-92
2024/01/07 04:27:34;;;;;;;19.35;13.00;;;;;;;3.71;100.00;101435.00;6122094;23;20002;-92
2024/01/07 04:30:00;;;;;;;25.30;14.10;;;;;;;3.74;100.00;101442.59;6120400;23;20439;-92
2024/01/07 04:32:25;;;;;;;22.95;14.60;;;;;;;3.74;100.00;101454.53;6122179;23;20091;-92
2024/01/07 04:34:50;;;;;;;22.30;13.98;;;;;;;3.74;100.00;101454.53;6120370;23;20444;-92
2024/01/07 04:37:16;;;;;;;22.27;12.27;;;;;;;3.76;100.00;101453.66;6120540;23;20037;-92
2024/01/07 04:39:41;;;;;;;28.02;14.60;;;;;;;3.73;100.00;101458.81;6120585;23;20416;-92
2024/01/07 04:42:06;;;;;;;19.73;13.25;;;;;;;3.68;100.00;101455.44;6121039;23;20001;-92
2024/01/07 04:44:32;;;;;;;25.50;14.73;;;;;;;3.72;100.00;101451.97;6122037;23;20025;-94
2024/01/07 04:46:57;;;;;;;21.90;14.35;;;;;;;3.73;100.00;101448.59;6120734;23;20024;-92
2024/01/07 04:49:22;;;;;;;23.65;14.65;;;;;;;3.82;100.00;101452.72;6119929;23;20071;-92
2024/01/07 04:51:48;;;;;;;23.48;13.77;;;;;;;3.76;100.00;101456.19;6120372;23;20002;-92
2024/01/07 04:54:13;;;;;;;23.00;14.38;;;;;;;3.75;100.00;101458.75;6120494;23;20617;-92
2024/01/07 04:56:38;;;;;;;20.65;13.98;;;;;;;3.67;100.00;101456.31;6120455;23;20322;-93
2024/01/07 04:59:04;;;;;;;22.02;13.63;;;;;;;3.71;100.00;101463.06;6120581;23;20068;-93
2024/01/07 05:01:29;;;;;;;21.80;13.13;;;;;;;3.65;100.00;101452.91;6120852;23;20429;-93
2024/01/07 05:03:55;;;;;;;24.05;13.40;;;;;;;3.62;100.00;101465.72;6120415;23;20033;-93
2024/01/07 05:06:20;;;;;;;19.30;12.35;;;;;;;3.38;100.00;101457.50;6122612;23;20009;-93
2024/01/07 05:08:45;;;;;;;22.15;13.13;;;;;;;3.39;100.00;101463.44;6120959;23;20435;-92
2024/01/07 05:11:11;;;;;;;24.67;13.52;;;;;;;3.41;100.00;101465.13;6119902;23;20033;-92
2024/01/07 05:13:36;;;;;;;22.05;14.77;;;;;;;3.37;100.00;101471.13;6120424;23;20010;-92
2024/01/07 05:16:02;;;;;;;23.75;14.15;;;;;;;3.44;100.00;101477.00;6120645;23;20060;-92
2024/01/07 05:18:28;;;;;;;26.98;14.55;;;;;;;3.33;100.00;101468.63;6121498;23;20005;-92
2024/01/07 05:20:53;;;;;;;22.05;12.90;;;;;;;3.30;100.00;101483.97;6121781;23;20002;-92
2024/01/07 05:23:18;;;;;;;25.35;14.38;;;;;;;3.34;100.00;101485.59;6120760;23;20002;-92
2024/01/07 05:25:44;;;;;;;26.73;14.85;;;;;;;3.35;100.00;101483.06;6122536;23;20010;-93
2024/01/07 05:28:10;;;;;;;23.08;14.63;;;;;;;3.42;100.00;101489.78;6120713;23;20010;-92
2024/01/07 05:30:36;;;;;;;22.63;14.32;;;;;;;3.22;100.00;101492.53;6122982;23;20017;-92
2024/01/07 05:33:02;;;;;;;26.58;15.50;;;;;;;3.14;100.00;101501.13;6122119;23;20002;-92
2024/01/07 05:35:27;;;;;;;22.73;14.70;;;;;;;3.12;100.00;101505.38;6120429;23;20049;-93
2024/01/07 05:37:52;;;;;;;26.08;14.60;;;;;;;3.08;100.00;101504.59;6120293;23;20017;-93
2024/01/07 05:40:18;;;;;;;30.05;15.10;;;;;;;3.07;100.00;101507.13;6119754;23;20468;-92
2024/01/07 05:42:43;;;;;;;25.77;15.30;;;;;;;3.03;100.00;101508.06;6119824;23;20444;-92
2024/01/07 05:45:09;;;;;;;24.95;15.88;;;;;;;2.97;100.00;101507.22;6119908;23;20033;-92
2024/01/07 05:47:34;;;;;;;31.00;15.20;;;;;;;3.06;100.00;101513.13;6120829;23;20006;-93
2024/01/07 05:49:59;;;;;;;27.15;15.05;;;;;;;3.26;100.00;101513.75;6119970;23;20425;-91
2024/01/07 05:52:25;;;;;;;24.90;14.38;;;;;;;3.16;100.00;101510.44;6119480;23;20009;-93
2024/01/07 05:54:50;;;;;;;27.63;15.93;;;;;;;3.20;100.00;101508.72;6119675;23;20504;-93
2024/01/07 05:57:16;;;;;;;23.25;14.27;;;;;;;3.08;100.00;101519.88;6120037;23;20044;-92
2024/01/07 05:59:43;;;;;;;25.05;13.68;;;;;;;3.20;100.00;101524.03;6120667;23;20433;-94
2024/01/07 06:02:09;;;;;;;25.25;14.45;;;;;;;3.23;100.00;101524.00;6123031;23;20059;-93
2024/01/07 06:04:34;;;;;;;24.63;14.05;;;;;;;3.21;100.00;101516.34;6122337;23;20033;-92
2024/01/07 06:06:59;;;;;;;19.77;13.27;;;;;;;3.23;100.00;101524.00;6119706;23;20002;-92
2024/01/07 06:09:25;;;;;;;22.02;13.20;;;;;;;3.26;100.00;101540.97;6119796;23;20357;-92
2024/01/07 06:11:50;;;;;;;23.60;13.43;;;;;;;3.24;100.00;101530.78;6124142;23;20010;-92
2024/01/07 06:14:16;;;;;;;22.40;13.38;;;;;;;3.20;100.00;101524.88;6121436;23;20063;-93
2024/01/07 06:16:42;;;;;;;19.65;13.32;;;;;;;3.23;100.00;101534.22;6119693;23;20013;-92
2024/01/07 06:19:07;;;;;;;23.70;14.27;;;;;;;3.26;100.00;101538.44;6119963;23;20002;-92
2024/01/07 06:21:33;;;;;;;20.35;13.57;;;;;;;3.31;100.00;101542.63;6120668;23;20004;-94
2024/01/07 06:23:58;;;;;;;23.90;14.20;;;;;;;3.37;100.00;101546.84;6120871;23;20093;-95
2024/01/07 06:26:24;;;;;;;20.73;13.75;;;;;;;3.30;100.00;101543.50;6120753;23;20006;-92
2024/01/07 06:28:50;;;;;;;21.98;13.88;;;;;;;3.37;100.00;101537.47;6122277;23;20443;-95
2024/01/07 06:31:15;;;;;;;20.75;13.65;;;;;;;3.47;100.00;101550.16;6120201;23;20018;-94
2024/01/07 06:33:40;;;;;;;20.85;13.18;;;;;;;3.52;100.00;101543.28;6121214;23;20092;-93
2024/01/07 06:36:06;;;;;;;21.23;12.85;;;;;;;3.60;100.00;101549.13;6122570;23;20382;-93
2024/01/07 06:38:31;;;;;;;22.50;12.68;;;;;;;3.47;100.00;101558.66;6121697;23;19998;-95
2024/01/07 06:41:00;;;;;;;20.80;13.48;;;;;;;3.42;100.00;101555.28;6120365;23;20006;-93
2024/01/07 06:43:27;;;;;;;21.52;12.40;;;;;;;3.53;100.00;101557.72;6120613;23;20437;-92
2024/01/07 06:45:53;;;;;;;20.20;11.95;;;;;;;3.60;100.00;101561.91;6119663;23;20006;-93
2024/01/07 06:48:18;;;;;;;21.33;11.32;;;;;;;3.54;100.00;101564.53;6121515;23;20051;-93
2024/01/07 06:50:44;;;;;;;17.98;11.65;;;;;;;3.57;100.00;101569.59;6123764;23;20014;-96
2024/01/07 06:53:09;;;;;;;21.58;11.25;;;;;;;3.40;100.00;101573.16;6123598;22;20006;-94
2024/01/07 06:55:35;;;;;;;19.77;10.98;;;;;;;3.45;100.00;101578.22;6124432;23;20036;-95
2024/01/07 06:58:00;;;;;;;16.15;10.73;;;;;;;3.50;100.00;101583.28;6122889;23;20010;-93
2024/01/07 07:00:25;;;;;;;20.40;11.43;;;;;;;3.38;100.00;101585.09;6120210;23;20012;-92
2024/01/07 07:02:51;;;;;;;26.13;13.27;;;;;;;3.43;100.00;101593.53;6120490;23;20495;-94
2024/01/07 07:05:17;;;;;;;15.50;10.45;;;;;;;3.51;100.00;101584.97;6120565;23;20002;-95
2024/01/07 07:07:42;;;;;;;17.58;11.43;;;;;;;3.46;100.00;101586.72;6122376;23;20006;-92
2024/01/07 07:10:08;;;;;;;22.02;11.45;;;;;;;3.53;100.00;101601.97;6122849;22;20002;-93
2024/01/07 07:12:33;;;;;;;20.05;12.45;;;;;;;3.44;100.00;101604.63;6120720;23;20002;-92
2024/01/07 07:14:59;;;;;;;18.10;10.93;;;;;;;3.45;100.00;101601.19;6120178;23;20006;-93
2024/01/07 07:17:24;;;;;;;18.33;9.63;;;;;;;3.60;100.00;101600.19;6120414;23;20014;-92
2024/01/07 07:19:49;;;;;;;17.20;10.23;;;;;;;3.52;100.00;101607.09;6124364;23;20025;-94
2024/01/07 07:22:19;;;;;;;16.48;10.10;;;;;;;3.41;100.00;101600.38;6122549;23;20005;-94
2024/01/07 07:24:45;;;;;;;17.48;8.75;;;;;;;3.51;100.00;101600.28;6124028;23;20076;-91
2024/01/07 07:27:10;;;;;;;11.80;8.43;;;;;;;3.60;100.00;101615.50;6120750;23;20014;-93
2024/01/07 07:29:36;;;;;;;11.98;7.35;;;;;;;3.49;100.00;101607.97;6122965;23;20045;-93
2024/01/07 07:32:01;;;;;;;10.88;7.25;;;;;;;3.64;100.00;101623.13;6126481;23;20017;-94
2024/01/07 07:34:27;;;;;;;15.70;7.15;;;;;;;3.53;100.00;101622.38;6122393;23;19985;-94
2024/01/07 07:36:52;;;;;;;15.57;8.50;;;;;;;3.48;100.00;101625.84;6122569;23;20016;-92
2024/01/07 07:39:17;;;;;;;10.15;7.32;;;;;;;3.57;100.00;101631.72;6121054;23;20433;-95
2024/01/07 07:41:43;;;;;;;11.45;6.47;;;;;;;3.45;100.00;101636.94;6122580;23;20032;-94
2024/01/07 07:44:08;;;;;;;8.43;5.25;;;;;;;3.45;100.00;101636.09;6123167;23;19998;-95
2024/01/07 07:46:33;;;;;;;11.40;5.93;;;;;;;3.33;100.00;101627.66;6121126;23;20071;-92
2024/01/07 07:49:00;;;;;;;8.68;5.28;;;;;;;3.30;100.00;101624.31;6122657;23;20013;-95
2024/01/07 07:51:26;;;;;;;10.43;4.80;;;;;;;3.33;100.00;101637.03;6120564;23;20041;-95
2024/01/07 07:53:51;;;;;;;6.50;4.07;;;;;;;3.32;100.00;101646.41;6121798;23;20483;-94
2024/01/07 07:56:17;;;;;;;6.90;4.30;;;;;;;3.15;100.00;101643.13;6121318;23;20010;-94
2024/01/07 07:58:42;;;;;;;6.03;4.05;;;;;;;3.09;100.00;101641.44;6125982;23;20006;-95
2024/01/07 08:01:23;;;;;;;8.13;4.47;;;;;;;3.19;100.00;101649.88;6130557;23;20002;-95
2024/01/07 08:03:49;;;;;;;9.32;4.50;;;;;;;3.10;100.00;101655.91;6126417;23;20006;-96
2024/01/07 08:06:14;;;;;;;6.72;3.63;;;;;;;3.15;100.00;101664.38;6132657;23;20016;-95
2024/01/07 08:08:40;;;;;;;8.23;4.28;;;;;;;3.17;100.00;101666.91;6129273;23;20013;-94
2024/01/07 08:11:36;;;;;;;11.32;4.05;;;;;;;3.15;100.00;101651.63;6122845;23;20009;-94
2024/01/07 08:14:02;;;;;;;5.93;3.95;;;;;;;3.05;100.00;101649.13;6112292;23;20024;-94
2024/01/07 08:16:27;;;;;;;5.82;3.33;;;;;;;3.24;100.00;101663.44;6122749;23;20444;-93
2024/01/07 08:18:56;;;;;;;8.13;3.70;;;;;;;3.13;100.00;101655.88;6124135;23;20284;-96
2024/01/07 08:21:22;;;;;;;7.88;3.55;;;;;;;3.09;100.00;101663.56;6121176;23;20010;-95
2024/01/07 08:23:48;;;;;;;4.75;3.03;;;;;;;3.09;100.00;101668.66;6123115;23;20032;-95
2024/01/07 08:26:18;;;;;;;8.13;3.45;;;;;;;3.10;100.00;101673.78;6128255;23;20002;-94
2024/01/07 08:28:44;;;;;;;7.43;4.00;;;;;;;3.03;100.00;101684.03;6125869;23;20013;-95
2024/01/07 08:31:10;;;;;;;9.50;3.33;;;;;;;2.90;100.00;101679.00;6122041;23;20341;-92
2024/01/07 08:33:35;;;;;;;7.28;3.35;;;;;;;2.96;100.00;101689.16;6123990;23;20010;-95
2024/01/07 08:36:05;;;;;;;8.10;3.85;;;;;;;2.98;100.00;101692.53;6127798;23;20485;-95
2024/01/07 08:38:30;;;;;;;6.82;3.42;;;;;;;2.96;100.00;101691.69;6127200;23;20492;-95
2024/01/07 08:40:56;;;;;;;12.63;6.15;;;;;;;2.88;100.00;101692.59;6128403;23;19998;-93
2024/01/07 08:43:24;;;;;;;6.45;3.88;;;;;;;2.77;100.00;101692.66;6140429;22;20022;-95
2024/01/07 08:45:58;;;;;;;8.38;3.85;;;;;;;2.79;100.00;101696.06;6140423;23;20024;-95
2024/01/07 08:48:36;;;;;;;8.43;3.65;;;;;;;2.78;100.00;101704.56;6136621;22;20029;-95
2024/01/07 08:51:05;;;;;;;6.05;3.58;;;;;;;2.70;100.00;101704.56;6128347;23;19993;-95
2024/01/07 08:53:31;;;;;;;11.88;4.05;;;;;;;2.84;100.00;101719.81;6123733;23;20013;-93
2024/01/07 08:55:57;;;;;;;5.00;3.42;;;;;;;2.77;100.00;101707.94;6127486;23;20073;-92
2024/01/07 08:58:22;;;;;;;11.65;3.97;;;;;;;2.83;100.00;101722.38;6142941;22;20021;-95
2024/01/07 09:00:48;;;;;;;6.38;3.65;;;;;;;2.67;100.00;101701.22;6124466;23;20014;-96
2024/01/07 09:03:13;;;;;;;6.70;3.10;;;;;;;2.63;100.00;101702.91;6130370;23;20058;-95
2024/01/07 09:05:39;;;;;;;6.82;3.40;;;;;;;2.79;100.00;101724.09;6126413;23;20006;-96
2024/01/07 09:08:06;;;;;;;5.57;3.30;;;;;;;2.68;100.00;101702.88;6122751;23;20002;-92
2024/01/07 09:10:33;;;;;;;11.07;3.25;;;;;;;2.67;100.00;101711.41;6123555;23;20041;-96
2024/01/07 09:12:59;;;;;;;6.63;3.30;;;;;;;2.72;100.00;101707.13;6124719;23;20445;-96
2024/01/07 09:15:25;;;;;;;7.15;3.30;;;;;;;2.64;100.00;101711.44;6122348;23;20123;-94
2024/01/07 09:17:50;;;;;;;7.43;3.20;;;;;;;2.70;100.00;101726.69;6120115;23;20329;-93
2024/01/07 09:20:16;;;;;;;6.63;2.75;;;;;;;2.78;100.00;101730.06;6120583;23;19999;-94
2024/01/07 09:22:43;;;;;;;4.13;2.42;;;;;;;2.84;100.00;101740.22;6120758;23;20025;-93
2024/01/07 09:25:09;;;;;;;6.45;2.63;;;;;;;2.77;100.00;101734.28;6121148;23;20005;-92
2024/01/07 09:27:34;;;;;;;4.80;2.50;;;;;;;2.79;100.00;101736.84;6119813;23;20010;-93
2024/01/07 09:29:59;;;;;;;3.25;2.13;;;;;;;2.96;100.00;101755.47;6121011;23;20039;-92
2024/01/07 09:32:25;;;;;;;9.20;3.03;;;;;;;2.85;100.00;101746.16;6119833;23;20006;-92
2024/01/07 09:34:50;;;;;;;4.18;1.50;;;;;;;2.81;100.00;101747.88;6120759;23;20062;-93
2024/01/07 09:37:16;;;;;;;6.30;1.63;;;;;;;2.94;100.00;101761.41;6120955;23;20425;-92
2024/01/07 09:39:42;;;;;;;9.93;1.58;;;;;;;2.82;100.00;101747.03;6121462;23;20033;-93
2024/01/07 09:42:13;;;;;;;4.53;1.63;;;;;;;2.98;100.00;101758.84;6121839;23;20433;-94
2024/01/07 09:44:38;;;;;;;4.18;1.20;;;;;;;2.96;100.00;101759.72;6122492;23;20009;-92
2024/01/07 09:47:05;;;;;;;4.40;1.42;;;;;;;2.91;100.00;101762.28;6120803;23;20017;-94
2024/01/07 09:49:31;;;;;;;8.15;1.25;;;;;;;2.91;100.00;101751.25;6122337;23;20078;-93
2024/01/07 09:52:01;;;;;;;2.25;1.17;;;;;;;2.89;100.00;101755.50;6120215;23;20088;-93
2024/01/07 09:54:27;;;;;;;5.72;1.60;;;;;;;2.95;100.00;101758.88;6120549;23;20006;-94
2024/01/07 09:56:59;;;;;;;6.55;1.15;;;;;;;3.06;100.00;101770.72;6119911;23;20037;-93
2024/01/07 09:59:27;;;;;;;2.28;1.48;;;;;;;3.05;100.00;101766.47;6120808;23;20002;-93
2024/01/07 10:01:53;;;;;;;1.15;0.88;;;;;;;3.38;100.00;101775.66;6120388;23;20413;-93
2024/01/07 10:04:18;;;;;;;4.15;1.55;;;;;;;3.60;100.00;101776.34;6121085;23;20045;-93
2024/01/07 10:06:44;;;;;;;3.60;1.20;;;;;;;4.21;100.00;101767.31;6122087;23;20032;-92
2024/01/07 10:09:12;;;;;;;1.95;1.10;;;;;;;4.48;100.00;101774.69;6121092;23;20006;-94
2024/01/07 10:11:38;;;;;;;2.90;1.15;;;;;;;4.95;100.00;101775.03;6104206;22;20836;-94
2024/01/07 10:14:07;;;;;;;4.00;1.40;;;;;;;5.24;99.67;101764.41;6138776;22;20026;-96
2024/01/07 10:16:33;;;;;;;3.20;1.30;;;;;;;5.29;99.62;101774.56;6130764;22;20095;-93
2024/01/07 10:19:01;;;;;;;3.80;1.30;;;;;;;5.90;93.67;101771.09;6131011;23;20002;-96
2024/01/07 10:21:27;;;;;;;1.98;1.13;;;;;;;6.08;90.92;101784.50;6131976;23;20014;-94
2024/01/07 10:24:12;;;;;;;4.80;1.25;;;;;;;8.57;76.79;101795.28;6123717;23;20055;-93
2024/01/07 10:26:39;;;;;;;3.10;1.20;;;;;;;7.96;68.88;101791.69;6127731;23;20094;-95
2024/01/07 10:29:05;;;;;;;3.25;0.90;;;;;;;8.23;68.48;101800.44;6125589;23;20013;-94
2024/01/07 10:34:20;;;;;;;2.88;1.02;;;;;;;7.04;79.70;101794.63;6110991;22;19998;-96
2024/01/07 10:36:46;;;;;;;5.70;1.33;;;;;;;6.77;74.77;101796.03;6131509;23;20409;-91
2024/01/07 10:39:12;;;;;;;4.07;1.23;;;;;;;7.64;77.06;101796.72;6119659;23;20009;-90
2024/01/07 10:41:39;;;;;;;4.55;1.48;;;;;;;8.64;68.79;101785.66;6120131;23;20465;-91
2024/01/07 10:44:05;;;;;;;5.00;1.10;;;;;;;8.84;64.33;101785.09;6119885;23;20025;-93
2024/01/07 10:46:31;;;;;;;2.83;1.17;;;;;;;7.64;69.03;101793.31;6120680;23;20010;-94
2024/01/07 10:51:28;;;;;;;6.45;1.85;;;;;;;7.34;77.72;101782.88;6101569;22;20022;-91
2024/01/07 10:53:56;;;;;;;3.70;1.73;;;;;;;9.29;67.84;101794.91;6121483;23;20010;-95
2024/01/07 10:56:38;;;;;;;1.77;1.33;;;;;;;11.16;59.47;101785.13;6132315;22;20018;-92
2024/01/07 10:59:04;;;;;;;4.90;1.45;;;;;;;10.75;57.59;101792.69;6120629;23;20006;-92
2024/01/07 11:01:29;;;;;;;5.90;1.63;;;;;;;10.53;58.80;101790.88;6119406;23;20375;-89
2024/01/07 11:04:14;;;;;;;2.95;1.10;;;;;;;10.68;57.51;101787.75;6118835;23;20017;-92
2024/01/07 11:06:57;;;;;;;3.78;0.82;;;;;;;11.08;57.11;101785.44;6119309;23;20438;-93
2024/01/07 11:10:01;;;;;;;3.65;1.25;;;;;;;10.53;58.57;101788.28;6119267;23;20018;-94
2024/01/07 11:12:26;;;;;;;9.93;1.63;;;;;;;11.41;54.70;101780.72;6110844;23;20458;-90
2024/01/07 11:14:52;;;;;;;4.45;1.27;;;;;;;10.50;57.11;101788.41;6117831;23;20346;-90
2024/01/07 11:17:36;;;;;;;2.75;1.10;;;;;;;11.29;53.46;101791.50;6119341;23;20081;-90